sensor_id;sensor_type;location;lat;lon;timestamp;P1;durP1;ratioP1;P2;durP2;ratioP2
69417;SDS011;56610;48.872;2.400;2023-03-15T00:00:47;3.53;;;2.42;;
69417;SDS011;56610;48.872;2.400;2023-03-15T00:03:13;4.80;;;2.50;;
69417;SDS011;56610;48.872;2.400;2023-03-15T00:05:43;4.38;;;2.30;;
69417;SDS011;56610;48.872;2.400;2023-03-15T00:08:10;3.28;;;1.92;;
69417;SDS011;56610;48.872;2.400;2023-03-15T00:10:39;2.92;;;1.85;;
69417;SDS011;56610;48.872;2.400;2023-03-15T00:13:08;3.30;;;1.95;;
69417;SDS011;56610;48.872;2.400;2023-03-15T00:15:35;4.35;;;2.00;;
69417;SDS011;56610;48.872;2.400;2023-03-15T00:18:08;3.78;;;2.05;;
69417;SDS011;56610;48.872;2.400;2023-03-15T00:20:33;3.53;;;1.98;;
69417;SDS011;56610;48.872;2.400;2023-03-15T00:23:01;2.60;;;1.75;;
69417;SDS011;56610;48.872;2.400;2023-03-15T00:25:27;2.70;;;2.00;;
69417;SDS011;56610;48.872;2.400;2023-03-15T00:27:53;2.33;;;1.73;;
69417;SDS011;56610;48.872;2.400;2023-03-15T00:30:19;3.28;;;1.83;;
69417;SDS011;56610;48.872;2.400;2023-03-15T00:32:44;3.30;;;2.00;;
69417;SDS011;56610;48.872;2.400;2023-03-15T00:35:10;2.80;;;1.80;;
69417;SDS011;56610;48.872;2.400;2023-03-15T00:37:42;3.78;;;2.22;;
69417;SDS011;56610;48.872;2.400;2023-03-15T00:40:09;4.40;;;2.05;;
69417;SDS011;56610;48.872;2.400;2023-03-15T00:45:02;2.42;;;1.73;;
69417;SDS011;56610;48.872;2.400;2023-03-15T00:47:27;2.83;;;1.83;;
69417;SDS011;56610;48.872;2.400;2023-03-15T00:49:53;3.83;;;1.80;;
69417;SDS011;56610;48.872;2.400;2023-03-15T00:52:19;4.18;;;2.20;;
69417;SDS011;56610;48.872;2.400;2023-03-15T00:54:52;4.25;;;2.05;;
69417;SDS011;56610;48.872;2.400;2023-03-15T00:57:19;3.22;;;2.00;;
69417;SDS011;56610;48.872;2.400;2023-03-15T00:59:44;4.20;;;2.50;;
69417;SDS011;56610;48.872;2.400;2023-03-15T01:02:10;4.75;;;2.05;;
69417;SDS011;56610;48.872;2.400;2023-03-15T01:04:37;2.65;;;2.00;;
69417;SDS011;56610;48.872;2.400;2023-03-15T01:07:03;4.63;;;2.20;;
69417;SDS011;56610;48.872;2.400;2023-03-15T01:09:29;4.00;;;2.30;;
69417;SDS011;56610;48.872;2.400;2023-03-15T01:11:57;4.68;;;2.50;;
69417;SDS011;56610;48.872;2.400;2023-03-15T01:14:23;4.35;;;2.60;;
69417;SDS011;56610;48.872;2.400;2023-03-15T01:16:48;4.07;;;2.42;;
69417;SDS011;56610;48.872;2.400;2023-03-15T01:19:15;4.78;;;2.40;;
69417;SDS011;56610;48.872;2.400;2023-03-15T01:21:40;3.83;;;2.22;;
69417;SDS011;56610;48.872;2.400;2023-03-15T01:24:09;6.18;;;2.72;;
69417;SDS011;56610;48.872;2.400;2023-03-15T01:26:37;5.00;;;2.50;;
69417;SDS011;56610;48.872;2.400;2023-03-15T01:29:02;3.88;;;2.45;;
69417;SDS011;56610;48.872;2.400;2023-03-15T01:31:28;6.05;;;2.67;;
69417;SDS011;56610;48.872;2.400;2023-03-15T01:33:55;4.85;;;2.72;;
69417;SDS011;56610;48.872;2.400;2023-03-15T01:36:22;3.80;;;2.30;;
69417;SDS011;56610;48.872;2.400;2023-03-15T01:38:47;3.20;;;2.67;;
69417;SDS011;56610;48.872;2.400;2023-03-15T01:41:14;4.85;;;2.38;;
69417;SDS011;56610;48.872;2.400;2023-03-15T01:43:40;3.45;;;2.10;;
69417;SDS011;56610;48.872;2.400;2023-03-15T01:48:50;5.88;;;2.92;;
69417;SDS011;56610;48.872;2.400;2023-03-15T01:51:36;5.82;;;2.53;;
69417;SDS011;56610;48.872;2.400;2023-03-15T01:54:31;4.65;;;2.60;;
69417;SDS011;56610;48.872;2.400;2023-03-15T01:57:11;4.83;;;2.43;;
69417;SDS011;56610;48.872;2.400;2023-03-15T01:59:55;3.83;;;2.17;;
69417;SDS011;56610;48.872;2.400;2023-03-15T02:02:26;4.18;;;2.70;;
69417;SDS011;56610;48.872;2.400;2023-03-15T02:04:54;4.93;;;2.58;;
69417;SDS011;56610;48.872;2.400;2023-03-15T02:07:23;4.45;;;2.53;;
69417;SDS011;56610;48.872;2.400;2023-03-15T02:12:30;4.78;;;2.25;;
69417;SDS011;56610;48.872;2.400;2023-03-15T02:14:59;4.57;;;2.33;;
69417;SDS011;56610;48.872;2.400;2023-03-15T02:17:29;4.32;;;2.25;;
69417;SDS011;56610;48.872;2.400;2023-03-15T02:23:01;4.40;;;2.22;;
69417;SDS011;56610;48.872;2.400;2023-03-15T02:27:58;5.43;;;2.00;;
69417;SDS011;56610;48.872;2.400;2023-03-15T02:30:25;4.70;;;2.50;;
69417;SDS011;56610;48.872;2.400;2023-03-15T02:32:51;4.45;;;1.88;;
69417;SDS011;56610;48.872;2.400;2023-03-15T02:35:24;3.92;;;2.45;;
69417;SDS011;56610;48.872;2.400;2023-03-15T02:37:52;5.93;;;2.35;;
69417;SDS011;56610;48.872;2.400;2023-03-15T02:40:21;4.25;;;2.20;;
69417;SDS011;56610;48.872;2.400;2023-03-15T02:42:49;4.90;;;2.38;;
69417;SDS011;56610;48.872;2.400;2023-03-15T02:45:19;3.83;;;2.08;;
69417;SDS011;56610;48.872;2.400;2023-03-15T02:47:45;3.95;;;2.05;;
69417;SDS011;56610;48.872;2.400;2023-03-15T02:50:12;4.70;;;2.13;;
69417;SDS011;56610;48.872;2.400;2023-03-15T02:52:38;4.82;;;2.70;;
69417;SDS011;56610;48.872;2.400;2023-03-15T02:55:04;11.68;;;6.97;;
69417;SDS011;56610;48.872;2.400;2023-03-15T02:57:30;10.13;;;6.65;;
69417;SDS011;56610;48.872;2.400;2023-03-15T02:59:55;6.03;;;4.65;;
69417;SDS011;56610;48.872;2.400;2023-03-15T03:02:22;5.82;;;3.67;;
69417;SDS011;56610;48.872;2.400;2023-03-15T03:04:48;6.55;;;2.53;;
69417;SDS011;56610;48.872;2.400;2023-03-15T03:07:13;4.50;;;2.08;;
69417;SDS011;56610;48.872;2.400;2023-03-15T03:09:39;3.20;;;2.08;;
69417;SDS011;56610;48.872;2.400;2023-03-15T03:12:05;3.50;;;2.40;;
69417;SDS011;56610;48.872;2.400;2023-03-15T03:14:31;3.60;;;2.15;;
69417;SDS011;56610;48.872;2.400;2023-03-15T03:16:56;4.82;;;1.98;;
69417;SDS011;56610;48.872;2.400;2023-03-15T03:19:22;4.35;;;1.88;;
69417;SDS011;56610;48.872;2.400;2023-03-15T03:21:50;4.45;;;2.42;;
69417;SDS011;56610;48.872;2.400;2023-03-15T03:24:17;4.00;;;2.35;;
69417;SDS011;56610;48.872;2.400;2023-03-15T03:26:44;5.78;;;2.10;;
69417;SDS011;56610;48.872;2.400;2023-03-15T03:29:10;4.85;;;1.60;;
69417;SDS011;56610;48.872;2.400;2023-03-15T03:31:35;3.38;;;1.60;;
69417;SDS011;56610;48.872;2.400;2023-03-15T03:34:01;3.05;;;1.70;;
69417;SDS011;56610;48.872;2.400;2023-03-15T03:36:26;4.72;;;1.67;;
69417;SDS011;56610;48.872;2.400;2023-03-15T03:38:52;5.32;;;1.80;;
69417;SDS011;56610;48.872;2.400;2023-03-15T03:41:18;4.03;;;1.77;;
69417;SDS011;56610;48.872;2.400;2023-03-15T03:43:45;2.80;;;1.70;;
69417;SDS011;56610;48.872;2.400;2023-03-15T03:46:10;3.08;;;1.52;;
69417;SDS011;56610;48.872;2.400;2023-03-15T03:48:36;5.47;;;1.95;;
69417;SDS011;56610;48.872;2.400;2023-03-15T03:51:02;7.63;;;1.83;;
69417;SDS011;56610;48.872;2.400;2023-03-15T03:53:28;4.95;;;2.10;;
69417;SDS011;56610;48.872;2.400;2023-03-15T03:55:53;4.07;;;1.60;;
69417;SDS011;56610;48.872;2.400;2023-03-15T03:58:19;4.93;;;1.60;;
69417;SDS011;56610;48.872;2.400;2023-03-15T04:00:45;5.00;;;1.90;;
69417;SDS011;56610;48.872;2.400;2023-03-15T04:03:10;3.50;;;1.60;;
69417;SDS011;56610;48.872;2.400;2023-03-15T04:05:36;3.55;;;1.75;;
69417;SDS011;56610;48.872;2.400;2023-03-15T04:08:01;4.88;;;1.92;;
69417;SDS011;56610;48.872;2.400;2023-03-15T04:10:27;4.20;;;1.60;;
69417;SDS011;56610;48.872;2.400;2023-03-15T04:12:53;4.50;;;1.52;;
69417;SDS011;56610;48.872;2.400;2023-03-15T04:15:20;3.88;;;1.60;;
69417;SDS011;56610;48.872;2.400;2023-03-15T04:17:47;3.90;;;1.73;;
69417;SDS011;56610;48.872;2.400;2023-03-15T04:20:20;5.07;;;1.60;;
69417;SDS011;56610;48.872;2.400;2023-03-15T04:22:46;5.80;;;2.25;;
69417;SDS011;56610;48.872;2.400;2023-03-15T04:25:17;4.10;;;1.57;;
69417;SDS011;56610;48.872;2.400;2023-03-15T04:27:43;3.70;;;1.88;;
69417;SDS011;56610;48.872;2.400;2023-03-15T04:30:09;4.28;;;1.60;;
69417;SDS011;56610;48.872;2.400;2023-03-15T04:32:36;4.00;;;1.65;;
69417;SDS011;56610;48.872;2.400;2023-03-15T04:35:02;4.07;;;1.90;;
69417;SDS011;56610;48.872;2.400;2023-03-15T04:37:28;5.70;;;1.85;;
69417;SDS011;56610;48.872;2.400;2023-03-15T04:39:56;5.00;;;1.73;;
69417;SDS011;56610;48.872;2.400;2023-03-15T04:42:21;4.07;;;1.70;;
69417;SDS011;56610;48.872;2.400;2023-03-15T04:44:47;3.42;;;1.60;;
69417;SDS011;56610;48.872;2.400;2023-03-15T04:47:12;4.25;;;1.60;;
69417;SDS011;56610;48.872;2.400;2023-03-15T04:49:38;7.22;;;1.92;;
69417;SDS011;56610;48.872;2.400;2023-03-15T04:52:04;5.55;;;1.55;;
69417;SDS011;56610;48.872;2.400;2023-03-15T04:54:29;4.03;;;1.80;;
69417;SDS011;56610;48.872;2.400;2023-03-15T04:56:55;3.83;;;1.67;;
69417;SDS011;56610;48.872;2.400;2023-03-15T04:59:20;6.18;;;1.80;;
69417;SDS011;56610;48.872;2.400;2023-03-15T05:01:46;4.63;;;1.90;;
69417;SDS011;56610;48.872;2.400;2023-03-15T05:04:11;4.47;;;1.88;;
69417;SDS011;56610;48.872;2.400;2023-03-15T05:06:37;7.13;;;2.03;;
69417;SDS011;56610;48.872;2.400;2023-03-15T05:09:03;4.43;;;1.60;;
69417;SDS011;56610;48.872;2.400;2023-03-15T05:11:29;6.22;;;2.00;;
69417;SDS011;56610;48.872;2.400;2023-03-15T05:13:55;5.72;;;1.48;;
69417;SDS011;56610;48.872;2.400;2023-03-15T05:16:20;5.47;;;1.63;;
69417;SDS011;56610;48.872;2.400;2023-03-15T05:18:46;3.85;;;1.52;;
69417;SDS011;56610;48.872;2.400;2023-03-15T05:21:11;4.00;;;1.70;;
69417;SDS011;56610;48.872;2.400;2023-03-15T05:23:37;5.82;;;2.10;;
69417;SDS011;56610;48.872;2.400;2023-03-15T05:26:03;7.20;;;1.80;;
69417;SDS011;56610;48.872;2.400;2023-03-15T05:28:29;4.63;;;1.60;;
69417;SDS011;56610;48.872;2.400;2023-03-15T05:30:55;6.65;;;1.90;;
69417;SDS011;56610;48.872;2.400;2023-03-15T05:33:22;4.93;;;1.92;;
69417;SDS011;56610;48.872;2.400;2023-03-15T05:35:48;4.50;;;2.00;;
69417;SDS011;56610;48.872;2.400;2023-03-15T05:38:14;5.95;;;1.90;;
69417;SDS011;56610;48.872;2.400;2023-03-15T05:40:41;3.88;;;1.70;;
69417;SDS011;56610;48.872;2.400;2023-03-15T05:43:08;4.05;;;1.75;;
69417;SDS011;56610;48.872;2.400;2023-03-15T05:45:34;7.03;;;1.90;;
69417;SDS011;56610;48.872;2.400;2023-03-15T05:48:00;4.88;;;1.60;;
69417;SDS011;56610;48.872;2.400;2023-03-15T05:50:26;4.07;;;1.48;;
69417;SDS011;56610;48.872;2.400;2023-03-15T05:52:52;5.25;;;1.70;;
69417;SDS011;56610;48.872;2.400;2023-03-15T05:55:18;5.80;;;1.40;;
69417;SDS011;56610;48.872;2.400;2023-03-15T05:57:44;3.00;;;1.40;;
69417;SDS011;56610;48.872;2.400;2023-03-15T06:00:10;5.82;;;1.70;;
69417;SDS011;56610;48.872;2.400;2023-03-15T06:02:38;4.07;;;1.77;;
69417;SDS011;56610;48.872;2.400;2023-03-15T06:05:08;5.47;;;1.83;;
69417;SDS011;56610;48.872;2.400;2023-03-15T06:07:34;4.88;;;1.75;;
69417;SDS011;56610;48.872;2.400;2023-03-15T06:09:59;8.32;;;2.17;;
69417;SDS011;56610;48.872;2.400;2023-03-15T06:12:25;5.55;;;1.90;;
69417;SDS011;56610;48.872;2.400;2023-03-15T06:14:50;5.35;;;1.85;;
69417;SDS011;56610;48.872;2.400;2023-03-15T06:17:16;6.25;;;1.90;;
69417;SDS011;56610;48.872;2.400;2023-03-15T06:19:42;6.82;;;2.08;;
69417;SDS011;56610;48.872;2.400;2023-03-15T06:22:08;5.03;;;2.15;;
69417;SDS011;56610;48.872;2.400;2023-03-15T06:24:33;8.55;;;2.50;;
69417;SDS011;56610;48.872;2.400;2023-03-15T06:26:59;7.00;;;2.28;;
69417;SDS011;56610;48.872;2.400;2023-03-15T06:29:25;5.20;;;2.40;;
69417;SDS011;56610;48.872;2.400;2023-03-15T06:31:50;4.07;;;2.00;;
69417;SDS011;56610;48.872;2.400;2023-03-15T06:34:17;5.85;;;2.13;;
69417;SDS011;56610;48.872;2.400;2023-03-15T06:36:43;4.05;;;2.05;;
69417;SDS011;56610;48.872;2.400;2023-03-15T06:39:09;6.00;;;3.72;;
69417;SDS011;56610;48.872;2.400;2023-03-15T06:41:36;6.47;;;2.20;;
69417;SDS011;56610;48.872;2.400;2023-03-15T06:44:02;7.82;;;2.63;;
69417;SDS011;56610;48.872;2.400;2023-03-15T06:46:27;4.45;;;2.30;;
69417;SDS011;56610;48.872;2.400;2023-03-15T06:48:53;5.03;;;2.75;;
69417;SDS011;56610;48.872;2.400;2023-03-15T06:51:18;6.70;;;2.45;;
69417;SDS011;56610;48.872;2.400;2023-03-15T06:53:44;8.82;;;3.63;;
69417;SDS011;56610;48.872;2.400;2023-03-15T06:56:10;7.65;;;2.53;;
69417;SDS011;56610;48.872;2.400;2023-03-15T06:58:36;6.20;;;2.90;;
69417;SDS011;56610;48.872;2.400;2023-03-15T07:01:01;6.45;;;2.80;;
69417;SDS011;56610;48.872;2.400;2023-03-15T07:03:28;7.15;;;2.97;;
69417;SDS011;56610;48.872;2.400;2023-03-15T07:05:53;7.13;;;2.90;;
69417;SDS011;56610;48.872;2.400;2023-03-15T07:08:20;6.70;;;2.78;;
69417;SDS011;56610;48.872;2.400;2023-03-15T07:10:47;6.63;;;2.50;;
69417;SDS011;56610;48.872;2.400;2023-03-15T07:13:14;5.78;;;3.38;;
69417;SDS011;56610;48.872;2.400;2023-03-15T07:15:42;5.68;;;2.88;;
69417;SDS011;56610;48.872;2.400;2023-03-15T07:18:08;7.43;;;2.97;;
69417;SDS011;56610;48.872;2.400;2023-03-15T07:20:33;7.47;;;2.72;;
69417;SDS011;56610;48.872;2.400;2023-03-15T07:22:59;4.30;;;2.40;;
69417;SDS011;56610;48.872;2.400;2023-03-15T07:25:24;6.22;;;2.50;;
69417;SDS011;56610;48.872;2.400;2023-03-15T07:27:50;5.93;;;3.38;;
69417;SDS011;56610;48.872;2.400;2023-03-15T07:30:17;6.10;;;3.30;;
69417;SDS011;56610;48.872;2.400;2023-03-15T07:32:44;6.68;;;3.00;;
69417;SDS011;56610;48.872;2.400;2023-03-15T07:35:09;6.30;;;3.13;;
69417;SDS011;56610;48.872;2.400;2023-03-15T07:37:35;5.63;;;2.88;;
69417;SDS011;56610;48.872;2.400;2023-03-15T07:40:01;5.97;;;2.17;;
69417;SDS011;56610;48.872;2.400;2023-03-15T07:42:37;8.68;;;2.53;;
69417;SDS011;56610;48.872;2.400;2023-03-15T07:45:06;5.78;;;2.28;;
69417;SDS011;56610;48.872;2.400;2023-03-15T07:47:33;5.77;;;2.40;;
69417;SDS011;56610;48.872;2.400;2023-03-15T07:49:59;6.20;;;2.30;;
69417;SDS011;56610;48.872;2.400;2023-03-15T07:52:24;7.00;;;2.22;;
69417;SDS011;56610;48.872;2.400;2023-03-15T07:54:50;4.60;;;1.98;;
69417;SDS011;56610;48.872;2.400;2023-03-15T07:57:16;9.43;;;2.60;;
69417;SDS011;56610;48.872;2.400;2023-03-15T07:59:42;8.07;;;2.63;;
69417;SDS011;56610;48.872;2.400;2023-03-15T08:02:11;5.85;;;2.33;;
69417;SDS011;56610;48.872;2.400;2023-03-15T08:04:38;8.32;;;2.13;;
69417;SDS011;56610;48.872;2.400;2023-03-15T08:07:04;6.05;;;2.03;;
69417;SDS011;56610;48.872;2.400;2023-03-15T08:09:29;7.53;;;2.20;;
69417;SDS011;56610;48.872;2.400;2023-03-15T08:11:57;7.30;;;2.20;;
69417;SDS011;56610;48.872;2.400;2023-03-15T08:14:23;7.47;;;2.22;;
69417;SDS011;56610;48.872;2.400;2023-03-15T08:16:51;6.10;;;2.50;;
69417;SDS011;56610;48.872;2.400;2023-03-15T08:19:17;7.03;;;2.30;;
69417;SDS011;56610;48.872;2.400;2023-03-15T08:21:43;10.13;;;2.13;;
69417;SDS011;56610;48.872;2.400;2023-03-15T08:24:11;5.65;;;2.00;;
69417;SDS011;56610;48.872;2.400;2023-03-15T08:26:37;5.30;;;2.00;;
69417;SDS011;56610;48.872;2.400;2023-03-15T08:29:03;9.80;;;2.78;;
69417;SDS011;56610;48.872;2.400;2023-03-15T08:31:29;5.18;;;2.33;;
69417;SDS011;56610;48.872;2.400;2023-03-15T08:33:55;8.00;;;2.70;;
69417;SDS011;56610;48.872;2.400;2023-03-15T08:36:21;6.75;;;2.40;;
69417;SDS011;56610;48.872;2.400;2023-03-15T08:38:46;8.90;;;2.75;;
69417;SDS011;56610;48.872;2.400;2023-03-15T08:41:12;7.75;;;2.40;;
69417;SDS011;56610;48.872;2.400;2023-03-15T08:43:38;7.50;;;2.30;;
69417;SDS011;56610;48.872;2.400;2023-03-15T08:46:04;6.28;;;2.55;;
69417;SDS011;56610;48.872;2.400;2023-03-15T08:48:29;6.28;;;2.40;;
69417;SDS011;56610;48.872;2.400;2023-03-15T08:50:56;4.90;;;2.25;;
69417;SDS011;56610;48.872;2.400;2023-03-15T08:56:12;6.43;;;2.67;;
69417;SDS011;56610;48.872;2.400;2023-03-15T08:58:38;7.13;;;2.67;;
69417;SDS011;56610;48.872;2.400;2023-03-15T09:01:04;7.50;;;2.28;;
69417;SDS011;56610;48.872;2.400;2023-03-15T09:03:30;7.63;;;2.13;;
69417;SDS011;56610;48.872;2.400;2023-03-15T09:05:58;6.05;;;2.30;;
69417;SDS011;56610;48.872;2.400;2023-03-15T09:08:24;5.85;;;2.03;;
69417;SDS011;56610;48.872;2.400;2023-03-15T09:10:54;12.45;;;2.30;;
69417;SDS011;56610;48.872;2.400;2023-03-15T09:13:20;6.60;;;2.30;;
69417;SDS011;56610;48.872;2.400;2023-03-15T09:15:49;10.18;;;2.38;;
69417;SDS011;56610;48.872;2.400;2023-03-15T09:18:16;6.75;;;2.08;;
69417;SDS011;56610;48.872;2.400;2023-03-15T09:20:42;5.70;;;1.88;;
69417;SDS011;56610;48.872;2.400;2023-03-15T09:23:08;6.20;;;1.90;;
69417;SDS011;56610;48.872;2.400;2023-03-15T09:25:34;7.78;;;2.17;;
69417;SDS011;56610;48.872;2.400;2023-03-15T09:28:01;5.97;;;1.70;;
69417;SDS011;56610;48.872;2.400;2023-03-15T09:30:27;8.05;;;2.17;;
69417;SDS011;56610;48.872;2.400;2023-03-15T09:32:53;6.90;;;1.88;;
69417;SDS011;56610;48.872;2.400;2023-03-15T09:35:39;9.73;;;2.28;;
69417;SDS011;56610;48.872;2.400;2023-03-15T09:38:05;5.85;;;2.03;;
69417;SDS011;56610;48.872;2.400;2023-03-15T09:40:32;9.07;;;3.00;;
69417;SDS011;56610;48.872;2.400;2023-03-15T09:48:11;11.17;;;2.40;;
69417;SDS011;56610;48.872;2.400;2023-03-15T09:50:40;7.93;;;2.30;;
69417;SDS011;56610;48.872;2.400;2023-03-15T09:53:31;8.98;;;2.65;;
69417;SDS011;56610;48.872;2.400;2023-03-15T09:56:14;7.75;;;2.30;;
69417;SDS011;56610;48.872;2.400;2023-03-15T09:58:58;6.68;;;2.50;;
69417;SDS011;56610;48.872;2.400;2023-03-15T10:01:36;4.90;;;1.90;;
69417;SDS011;56610;48.872;2.400;2023-03-15T10:06:52;6.53;;;2.33;;
69417;SDS011;56610;48.872;2.400;2023-03-15T10:09:24;4.28;;;1.80;;
69417;SDS011;56610;48.872;2.400;2023-03-15T10:16:57;10.85;;;2.22;;
69417;SDS011;56610;48.872;2.400;2023-03-15T10:24:48;4.38;;;1.70;;
69417;SDS011;56610;48.872;2.400;2023-03-15T10:27:18;7.95;;;2.00;;
69417;SDS011;56610;48.872;2.400;2023-03-15T10:29:47;6.68;;;2.05;;
69417;SDS011;56610;48.872;2.400;2023-03-15T10:32:19;11.27;;;1.80;;
69417;SDS011;56610;48.872;2.400;2023-03-15T10:34:50;7.25;;;2.03;;
69417;SDS011;56610;48.872;2.400;2023-03-15T10:37:17;5.15;;;1.77;;
69417;SDS011;56610;48.872;2.400;2023-03-15T10:39:48;8.02;;;2.17;;
69417;SDS011;56610;48.872;2.400;2023-03-15T10:42:22;15.70;;;4.50;;
69417;SDS011;56610;48.872;2.400;2023-03-15T10:44:49;5.88;;;1.75;;
69417;SDS011;56610;48.872;2.400;2023-03-15T10:47:15;9.13;;;2.20;;
69417;SDS011;56610;48.872;2.400;2023-03-15T10:49:44;6.47;;;1.80;;
69417;SDS011;56610;48.872;2.400;2023-03-15T10:55:02;6.95;;;1.98;;
69417;SDS011;56610;48.872;2.400;2023-03-15T10:57:32;9.25;;;2.00;;
69417;SDS011;56610;48.872;2.400;2023-03-15T11:00:05;8.18;;;2.20;;
69417;SDS011;56610;48.872;2.400;2023-03-15T11:02:48;5.95;;;1.77;;
69417;SDS011;56610;48.872;2.400;2023-03-15T11:05:37;6.88;;;2.15;;
69417;SDS011;56610;48.872;2.400;2023-03-15T11:08:14;4.60;;;1.83;;
69417;SDS011;56610;48.872;2.400;2023-03-15T11:10:43;7.60;;;1.95;;
69417;SDS011;56610;48.872;2.400;2023-03-15T11:13:11;6.80;;;1.70;;
69417;SDS011;56610;48.872;2.400;2023-03-15T11:15:47;7.10;;;1.88;;
69417;SDS011;56610;48.872;2.400;2023-03-15T11:18:24;5.00;;;1.90;;
69417;SDS011;56610;48.872;2.400;2023-03-15T11:20:53;6.05;;;1.95;;
69417;SDS011;56610;48.872;2.400;2023-03-15T11:23:21;5.72;;;1.95;;
69417;SDS011;56610;48.872;2.400;2023-03-15T11:25:54;4.68;;;2.15;;
69417;SDS011;56610;48.872;2.400;2023-03-15T11:28:25;3.08;;;1.10;;
69417;SDS011;56610;48.872;2.400;2023-03-15T11:30:54;4.43;;;1.67;;
69417;SDS011;56610;48.872;2.400;2023-03-15T11:33:29;5.25;;;1.60;;
69417;SDS011;56610;48.872;2.400;2023-03-15T11:36:02;4.95;;;1.17;;
69417;SDS011;56610;48.872;2.400;2023-03-15T11:38:32;3.95;;;1.15;;
69417;SDS011;56610;48.872;2.400;2023-03-15T11:41:10;4.32;;;1.17;;
69417;SDS011;56610;48.872;2.400;2023-03-15T11:43:59;4.82;;;1.50;;
69417;SDS011;56610;48.872;2.400;2023-03-15T11:46:49;3.25;;;1.20;;
69417;SDS011;56610;48.872;2.400;2023-03-15T11:49:34;2.85;;;1.40;;
69417;SDS011;56610;48.872;2.400;2023-03-15T11:54:30;7.38;;;1.65;;
69417;SDS011;56610;48.872;2.400;2023-03-15T11:57:00;5.68;;;1.35;;
69417;SDS011;56610;48.872;2.400;2023-03-15T11:59:31;6.10;;;1.50;;
69417;SDS011;56610;48.872;2.400;2023-03-15T12:04:45;4.85;;;1.77;;
69417;SDS011;56610;48.872;2.400;2023-03-15T12:09:56;4.68;;;1.58;;
69417;SDS011;56610;48.872;2.400;2023-03-15T12:12:46;4.15;;;1.60;;
69417;SDS011;56610;48.872;2.400;2023-03-15T12:17:55;4.88;;;1.45;;
69417;SDS011;56610;48.872;2.400;2023-03-15T12:20:41;3.42;;;1.67;;
69417;SDS011;56610;48.872;2.400;2023-03-15T12:25:56;5.68;;;1.70;;
69417;SDS011;56610;48.872;2.400;2023-03-15T12:30:56;3.85;;;1.33;;
69417;SDS011;56610;48.872;2.400;2023-03-15T12:33:25;4.38;;;1.30;;
69417;SDS011;56610;48.872;2.400;2023-03-15T12:35:57;3.00;;;1.30;;
69417;SDS011;56610;48.872;2.400;2023-03-15T12:38:36;2.17;;;1.10;;
69417;SDS011;56610;48.872;2.400;2023-03-15T12:41:07;4.13;;;1.52;;
69417;SDS011;56610;48.872;2.400;2023-03-15T12:43:53;4.30;;;1.30;;
69417;SDS011;56610;48.872;2.400;2023-03-15T12:49:11;3.10;;;1.23;;
69417;SDS011;56610;48.872;2.400;2023-03-15T12:51:44;4.40;;;1.40;;
69417;SDS011;56610;48.872;2.400;2023-03-15T12:54:23;2.78;;;1.20;;
69417;SDS011;56610;48.872;2.400;2023-03-15T12:56:58;2.97;;;1.08;;
69417;SDS011;56610;48.872;2.400;2023-03-15T12:59:49;4.40;;;1.60;;
69417;SDS011;56610;48.872;2.400;2023-03-15T13:08:43;4.40;;;1.58;;
69417;SDS011;56610;48.872;2.400;2023-03-15T13:19:50;2.75;;;1.10;;
69417;SDS011;56610;48.872;2.400;2023-03-15T13:22:30;2.17;;;0.93;;
69417;SDS011;56610;48.872;2.400;2023-03-15T13:25:12;3.33;;;1.10;;
69417;SDS011;56610;48.872;2.400;2023-03-15T13:27:57;2.42;;;0.90;;
69417;SDS011;56610;48.872;2.400;2023-03-15T13:30:33;3.13;;;1.27;;
69417;SDS011;56610;48.872;2.400;2023-03-15T13:35:44;4.07;;;1.30;;
69417;SDS011;56610;48.872;2.400;2023-03-15T13:38:36;4.57;;;1.50;;
69417;SDS011;56610;48.872;2.400;2023-03-15T13:41:05;4.83;;;1.43;;
69417;SDS011;56610;48.872;2.400;2023-03-15T13:43:41;3.08;;;1.00;;
69417;SDS011;56610;48.872;2.400;2023-03-15T13:46:07;2.78;;;1.23;;
69417;SDS011;56610;48.872;2.400;2023-03-15T13:48:34;3.85;;;1.00;;
69417;SDS011;56610;48.872;2.400;2023-03-15T13:51:13;2.60;;;1.10;;
69417;SDS011;56610;48.872;2.400;2023-03-15T13:53:44;3.00;;;1.00;;
69417;SDS011;56610;48.872;2.400;2023-03-15T13:56:16;3.20;;;1.00;;
69417;SDS011;56610;48.872;2.400;2023-03-15T13:58:43;2.55;;;1.00;;
69417;SDS011;56610;48.872;2.400;2023-03-15T14:01:10;3.58;;;0.90;;
69417;SDS011;56610;48.872;2.400;2023-03-15T14:03:39;4.10;;;1.27;;
69417;SDS011;56610;48.872;2.400;2023-03-15T14:06:08;4.25;;;1.25;;
69417;SDS011;56610;48.872;2.400;2023-03-15T14:08:37;2.75;;;0.85;;
69417;SDS011;56610;48.872;2.400;2023-03-15T14:11:10;2.97;;;0.80;;
69417;SDS011;56610;48.872;2.400;2023-03-15T14:13:49;4.28;;;1.20;;
69417;SDS011;56610;48.872;2.400;2023-03-15T14:16:30;3.55;;;1.00;;
69417;SDS011;56610;48.872;2.400;2023-03-15T14:19:05;3.72;;;1.25;;
69417;SDS011;56610;48.872;2.400;2023-03-15T14:21:38;2.85;;;1.08;;
69417;SDS011;56610;48.872;2.400;2023-03-15T14:24:04;1.20;;;0.70;;
69417;SDS011;56610;48.872;2.400;2023-03-15T14:26:30;2.58;;;0.70;;
69417;SDS011;56610;48.872;2.400;2023-03-15T14:28:57;1.90;;;1.00;;
69417;SDS011;56610;48.872;2.400;2023-03-15T14:31:31;2.40;;;1.50;;
69417;SDS011;56610;48.872;2.400;2023-03-15T14:34:07;2.47;;;0.90;;
69417;SDS011;56610;48.872;2.400;2023-03-15T14:36:41;3.22;;;1.25;;
69417;SDS011;56610;48.872;2.400;2023-03-15T14:39:27;3.33;;;1.20;;
69417;SDS011;56610;48.872;2.400;2023-03-15T14:41:53;2.47;;;0.82;;
69417;SDS011;56610;48.872;2.400;2023-03-15T14:44:19;3.30;;;1.05;;
69417;SDS011;56610;48.872;2.400;2023-03-15T14:46:45;3.97;;;1.42;;
69417;SDS011;56610;48.872;2.400;2023-03-15T14:49:12;2.15;;;1.05;;
69417;SDS011;56610;48.872;2.400;2023-03-15T14:51:55;3.78;;;1.00;;
69417;SDS011;56610;48.872;2.400;2023-03-15T14:54:27;3.22;;;1.00;;
69417;SDS011;56610;48.872;2.400;2023-03-15T14:56:53;3.13;;;0.80;;
69417;SDS011;56610;48.872;2.400;2023-03-15T14:59:19;3.50;;;1.00;;
69417;SDS011;56610;48.872;2.400;2023-03-15T15:02:02;4.68;;;1.10;;
69417;SDS011;56610;48.872;2.400;2023-03-15T15:04:31;4.63;;;1.08;;
69417;SDS011;56610;48.872;2.400;2023-03-15T15:06:58;4.05;;;1.02;;
69417;SDS011;56610;48.872;2.400;2023-03-15T15:09:27;1.70;;;0.80;;
69417;SDS011;56610;48.872;2.400;2023-03-15T15:11:55;5.05;;;0.95;;
69417;SDS011;56610;48.872;2.400;2023-03-15T15:14:20;5.65;;;1.10;;
69417;SDS011;56610;48.872;2.400;2023-03-15T15:16:46;3.78;;;0.90;;
69417;SDS011;56610;48.872;2.400;2023-03-15T15:19:12;3.15;;;1.10;;
69417;SDS011;56610;48.872;2.400;2023-03-15T15:21:39;2.33;;;0.98;;
69417;SDS011;56610;48.872;2.400;2023-03-15T15:24:09;2.40;;;0.90;;
69417;SDS011;56610;48.872;2.400;2023-03-15T15:26:40;2.20;;;0.95;;
69417;SDS011;56610;48.872;2.400;2023-03-15T15:29:09;2.38;;;1.00;;
69417;SDS011;56610;48.872;2.400;2023-03-15T15:31:36;2.90;;;1.23;;
69417;SDS011;56610;48.872;2.400;2023-03-15T15:34:02;3.88;;;0.90;;
69417;SDS011;56610;48.872;2.400;2023-03-15T15:36:30;6.10;;;1.65;;
69417;SDS011;56610;48.872;2.400;2023-03-15T15:38:58;2.65;;;0.90;;
69417;SDS011;56610;48.872;2.400;2023-03-15T15:41:30;2.75;;;1.02;;
69417;SDS011;56610;48.872;2.400;2023-03-15T15:43:59;4.72;;;0.93;;
69417;SDS011;56610;48.872;2.400;2023-03-15T15:46:25;2.67;;;0.88;;
69417;SDS011;56610;48.872;2.400;2023-03-15T15:48:51;4.45;;;1.05;;
69417;SDS011;56610;48.872;2.400;2023-03-15T15:51:19;2.00;;;0.75;;
69417;SDS011;56610;48.872;2.400;2023-03-15T15:53:48;3.00;;;1.13;;
69417;SDS011;56610;48.872;2.400;2023-03-15T15:56:13;3.33;;;1.10;;
69417;SDS011;56610;48.872;2.400;2023-03-15T15:58:40;2.80;;;1.25;;
69417;SDS011;56610;48.872;2.400;2023-03-15T16:01:09;6.20;;;1.40;;
69417;SDS011;56610;48.872;2.400;2023-03-15T16:03:37;3.25;;;1.33;;
69417;SDS011;56610;48.872;2.400;2023-03-15T16:06:03;4.18;;;1.20;;
69417;SDS011;56610;48.872;2.400;2023-03-15T16:08:29;3.03;;;0.90;;
69417;SDS011;56610;48.872;2.400;2023-03-15T16:11:01;4.80;;;1.20;;